Time;durP1;ratioP1;P1;durP2;ratioP2;P2;SDS_P1;SDS_P2;PMS_P1;PMS_P2;Temp;Humidity;BMP_temperature;BMP_pressure;BME280_temperature;BME280_humidity;BME280_pressure;Samples;Min_cycle;Max_cycle;Signal;HPM_P1;HPM_P2
2023/06/24 00:00:52;;;;;;;7.88;4.47;;;;;;;12.96;100.00;98126.31;5004986;28;20433;-47
2023/06/24 00:03:18;;;;;;;7.53;4.97;;;;;;;12.84;100.00;98117.41;5001600;28;20041;-46
2023/06/24 00:05:49;;;;;;;7.90;4.93;;;;;;;12.78;100.00;98127.38;5001702;28;20042;-47
2023/06/24 00:08:19;;;;;;;7.53;4.68;;;;;;;12.73;100.00;98127.31;5002023;28;20041;-50
2023/06/24 00:10:46;;;;;;;8.23;5.13;;;;;;;12.65;100.00;98127.72;5001420;28;20038;-47
2023/06/24 00:13:14;;;;;;;11.30;5.45;;;;;;;12.66;100.00;98132.91;4998761;28;20038;-47
2023/06/24 00:15:43;;;;;;;7.05;4.70;;;;;;;12.61;100.00;98130.09;5004683;28;20113;-46
2023/06/24 00:18:10;;;;;;;7.18;4.60;;;;;;;12.53;100.00;98131.31;5004794;28;20452;-45
2023/06/24 00:20:37;;;;;;;10.00;4.90;;;;;;;12.57;100.00;98126.25;5004755;28;20045;-46
2023/06/24 00:23:04;;;;;;;7.30;4.30;;;;;;;12.55;100.00;98128.38;4994095;28;20048;-47
2023/06/24 00:25:30;;;;;;;7.30;4.53;;;;;;;12.47;100.00;98125.00;4996573;28;20443;-46
2023/06/24 00:27:57;;;;;;;6.60;4.22;;;;;;;12.32;100.00;98122.00;4999191;28;20046;-48
2023/06/24 00:30:26;;;;;;;7.38;4.55;;;;;;;12.31;100.00;98117.66;4994515;28;20163;-48
2023/06/24 00:32:54;;;;;;;7.07;4.88;;;;;;;12.39;100.00;98119.13;4978579;28;20402;-46
2023/06/24 00:35:21;;;;;;;8.85;4.65;;;;;;;12.62;100.00;98131.75;4996504;28;20041;-47
2023/06/24 00:37:49;;;;;;;7.40;4.65;;;;;;;12.80;100.00;98127.97;5000382;28;20126;-45
2023/06/24 00:40:16;;;;;;;6.70;4.75;;;;;;;12.58;100.00;98134.16;5003395;28;20559;-48
2023/06/24 00:42:45;;;;;;;6.95;4.57;;;;;;;12.16;100.00;98126.34;4998474;28;20063;-46
2023/06/24 00:45:12;;;;;;;8.90;5.15;;;;;;;12.03;100.00;98127.44;5002069;28;20038;-47
2023/06/24 00:47:40;;;;;;;8.13;4.80;;;;;;;12.15;100.00;98127.41;5000940;28;20056;-47
2023/06/24 00:50:07;;;;;;;8.32;4.88;;;;;;;12.34;100.00;98123.41;5001407;28;20069;-50
2023/06/24 00:52:36;;;;;;;8.25;4.47;;;;;;;12.32;100.00;98122.81;4981807;28;20053;-49
2023/06/24 00:55:04;;;;;;;7.65;4.70;;;;;;;12.29;100.00;98133.34;4998449;28;20506;-49
2023/06/24 00:57:31;;;;;;;8.00;5.22;;;;;;;12.33;100.00;98129.91;5001696;28;20498;-48
2023/06/24 00:59:59;;;;;;;6.90;4.57;;;;;;;12.46;100.00;98130.69;5001761;28;20504;-46
2023/06/24 01:02:27;;;;;;;7.85;4.93;;;;;;;12.55;100.00;98129.19;4985316;28;20042;-48
2023/06/24 01:04:55;;;;;;;6.65;4.43;;;;;;;12.60;100.00;98126.56;4999467;28;20041;-49
2023/06/24 01:07:22;;;;;;;9.30;5.00;;;;;;;12.68;100.00;98135.38;4998860;28;20446;-47
2023/06/24 01:09:49;;;;;;;6.85;4.55;;;;;;;12.63;100.00;98127.16;5001262;28;20319;-48
2023/06/24 01:12:15;;;;;;;7.65;4.82;;;;;;;12.46;100.00;98125.25;5003652;28;20030;-46
2023/06/24 01:14:42;;;;;;;7.55;4.95;;;;;;;12.38;100.00;98122.94;4998076;28;20038;-49
2023/06/24 01:17:16;;;;;;;7.40;4.90;;;;;;;12.41;100.00;98122.41;4997162;28;20502;-45
2023/06/24 01:20:13;;;;;;;7.38;5.07;;;;;;;12.36;100.00;98123.16;5003899;28;20125;-50
2023/06/24 01:22:53;;;;;;;7.15;4.47;;;;;;;12.36;100.00;98123.97;4999021;28;20487;-46
2023/06/24 01:25:41;;;;;;;8.27;5.10;;;;;;;12.29;100.00;98119.78;4978771;28;20081;-46
2023/06/24 01:28:22;;;;;;;8.77;4.53;;;;;;;12.25;100.00;98121.34;5000829;28;20042;-48
2023/06/24 01:31:10;;;;;;;8.40;5.47;;;;;;;12.29;100.00;98126.03;4999824;28;20037;-46
2023/06/24 01:33:48;;;;;;;8.50;5.20;;;;;;;12.17;100.00;98128.00;4975979;28;20046;-49
2023/06/24 01:36:17;;;;;;;10.35;4.80;;;;;;;12.21;100.00;98121.00;4991301;28;20061;-45
2023/06/24 01:38:51;;;;;;;9.88;5.25;;;;;;;12.04;100.00;98123.66;4997996;28;20124;-45
2023/06/24 01:41:24;;;;;;;7.68;5.07;;;;;;;11.92;100.00;98121.81;4998671;28;20058;-46
2023/06/24 01:43:52;;;;;;;10.50;5.57;;;;;;;11.70;100.00;98110.81;5001117;28;20030;-45
2023/06/24 01:46:25;;;;;;;7.85;4.85;;;;;;;11.62;100.00;98112.03;4980597;28;20074;-46
2023/06/24 01:48:57;;;;;;;6.65;4.90;;;;;;;11.70;100.00;98117.06;4977877;28;20507;-46
2023/06/24 01:51:26;;;;;;;8.27;5.35;;;;;;;11.80;100.00;98115.63;4983595;28;20522;-49
2023/06/24 01:54:02;;;;;;;8.20;5.25;;;;;;;11.95;100.00;98117.78;5002896;28;20038;-47
2023/06/24 01:56:30;;;;;;;8.88;4.72;;;;;;;12.05;100.00;98123.44;4974722;28;20132;-46
2023/06/24 01:59:00;;;;;;;7.82;5.32;;;;;;;12.02;100.00;98121.16;4983162;28;20069;-48
2023/06/24 02:01:28;;;;;;;6.75;5.10;;;;;;;11.99;100.00;98123.56;4978587;28;20501;-46
2023/06/24 02:03:58;;;;;;;7.85;4.50;;;;;;;12.01;100.00;98116.81;4999321;28;20041;-45
2023/06/24 02:06:28;;;;;;;8.80;5.18;;;;;;;11.99;100.00;98118.97;5000007;28;20050;-46
2023/06/24 02:08:58;;;;;;;7.63;4.97;;;;;;;11.96;100.00;98114.00;4982826;28;20428;-47
2023/06/24 02:11:28;;;;;;;7.13;4.82;;;;;;;11.91;100.00;98116.63;4974484;28;20129;-48
2023/06/24 02:13:55;;;;;;;8.82;5.35;;;;;;;11.74;100.00;98109.25;4985436;28;20079;-45
2023/06/24 02:16:24;;;;;;;7.40;4.85;;;;;;;11.70;100.00;98102.66;5006342;28;20046;-48
2023/06/24 02:18:51;;;;;;;7.47;5.43;;;;;;;11.68;100.00;98102.91;5004865;28;20036;-47
2023/06/24 02:21:19;;;;;;;8.43;5.18;;;;;;;11.79;100.00;98111.25;5001215;28;20524;-47
2023/06/24 02:23:48;;;;;;;7.78;5.50;;;;;;;11.78;100.00;98109.59;5000072;28;20084;-47
2023/06/24 02:26:15;;;;;;;8.00;5.53;;;;;;;11.81;100.00;98107.25;5000672;28;20087;-46
2023/06/24 02:28:46;;;;;;;8.25;5.35;;;;;;;11.83;100.00;98109.69;4988820;28;20060;-45
2023/06/24 02:31:14;;;;;;;7.78;5.22;;;;;;;11.74;100.00;98103.84;5004058;28;20516;-47
2023/06/24 02:33:41;;;;;;;8.68;5.68;;;;;;;11.57;100.00;98099.16;5002930;28;20057;-48
2023/06/24 02:36:08;;;;;;;9.00;4.80;;;;;;;11.55;100.00;98101.31;5004059;28;20214;-48
2023/06/24 02:38:35;;;;;;;8.50;5.45;;;;;;;11.65;100.00;98097.16;4980847;28;20804;-47
2023/06/24 02:41:04;;;;;;;8.02;5.22;;;;;;;11.97;100.00;98091.22;4982145;28;20065;-49
2023/06/24 02:43:32;;;;;;;8.38;5.43;;;;;;;12.15;100.00;98090.22;4988402;28;20041;-49
2023/06/24 02:46:02;;;;;;;9.73;5.07;;;;;;;12.10;100.00;98101.81;4982787;28;21975;-47
2023/06/24 02:48:30;;;;;;;8.70;5.20;;;;;;;11.94;100.00;98097.97;5006559;28;20061;-47
2023/06/24 02:50:59;;;;;;;7.85;5.28;;;;;;;11.87;100.00;98089.13;4983580;28;20072;-49
2023/06/24 02:53:27;;;;;;;8.70;5.80;;;;;;;11.85;100.00;98096.72;4988251;28;20060;-48
2023/06/24 02:55:56;;;;;;;8.15;5.47;;;;;;;11.84;100.00;98089.66;4988426;28;20046;-49
2023/06/24 02:58:31;;;;;;;8.35;4.97;;;;;;;11.87;100.00;98088.34;5000328;28;20649;-49
2023/06/24 03:01:03;;;;;;;15.07;6.22;;;;;;;11.87;100.00;98091.06;4984226;28;20065;-47
2023/06/24 03:03:41;;;;;;;8.43;5.38;;;;;;;12.06;100.00;98089.78;4998773;28;20031;-46
2023/06/24 03:06:12;;;;;;;7.43;5.38;;;;;;;12.16;100.00;98091.88;4984811;28;20048;-48
2023/06/24 03:08:40;;;;;;;9.18;5.65;;;;;;;12.17;100.00;98092.72;4985950;28;20457;-47
2023/06/24 03:11:08;;;;;;;7.32;4.70;;;;;;;12.26;100.00;98096.66;4980396;28;20052;-49
2023/06/24 03:13:35;;;;;;;9.68;5.32;;;;;;;12.36;100.00;98102.25;4982562;28;20050;-47
2023/06/24 03:16:14;;;;;;;9.82;5.38;;;;;;;12.52;100.00;98099.81;4982377;28;20137;-48
2023/06/24 03:18:49;;;;;;;9.30;5.10;;;;;;;12.65;100.00;98108.69;4985173;28;20045;-46
2023/06/24 03:21:16;;;;;;;12.52;5.43;;;;;;;12.28;100.00;98110.00;4981638;28;20037;-47
2023/06/24 03:23:43;;;;;;;8.95;5.82;;;;;;;12.07;100.00;98109.63;4981834;28;20057;-47
2023/06/24 03:26:12;;;;;;;7.85;5.47;;;;;;;12.05;100.00;98109.88;4983212;28;20085;-47
2023/06/24 03:28:40;;;;;;;10.02;5.63;;;;;;;12.22;100.00;98111.78;4981570;28;20057;-50
2023/06/24 03:31:11;;;;;;;10.30;5.70;;;;;;;12.26;100.00;98110.22;4975331;28;20046;-46
2023/06/24 03:33:37;;;;;;;9.77;5.50;;;;;;;12.13;100.00;98111.38;5001184;28;20676;-48
2023/06/24 03:36:05;;;;;;;11.07;6.32;;;;;;;12.13;100.00;98115.97;4983399;28;20070;-49
2023/06/24 03:38:33;;;;;;;8.80;5.50;;;;;;;12.17;100.00;98114.44;4983204;28;20128;-46
2023/06/24 03:41:00;;;;;;;7.20;5.03;;;;;;;12.27;100.00;98116.50;4984341;28;20041;-45
2023/06/24 03:43:27;;;;;;;8.48;5.43;;;;;;;12.34;100.00;98117.97;4977106;28;20049;-48
2023/06/24 03:45:55;;;;;;;9.60;6.03;;;;;;;12.43;100.00;98118.41;4977152;28;20136;-48
2023/06/24 03:48:22;;;;;;;8.60;5.40;;;;;;;12.55;100.00;98123.75;4993789;28;20114;-46
2023/06/24 03:50:50;;;;;;;7.00;5.47;;;;;;;12.70;100.00;98116.91;4977820;28;20052;-45
2023/06/24 03:53:17;;;;;;;10.75;5.63;;;;;;;12.75;100.00;98130.59;4971943;28;20539;-49
2023/06/24 03:55:43;;;;;;;8.10;5.03;;;;;;;12.68;100.00;98127.22;4977370;28;20049;-50
2023/06/24 03:58:10;;;;;;;10.90;5.57;;;;;;;12.79;100.00;98137.16;4993207;28;20519;-48
2023/06/24 04:00:40;;;;;;;8.00;4.60;;;;;;;12.82;100.00;98142.13;4973554;28;20054;-48
2023/06/24 04:03:07;;;;;;;8.90;5.85;;;;;;;12.96;99.23;98141.78;4978712;28;20054;-46
2023/06/24 04:05:34;;;;;;;9.10;5.63;;;;;;;12.97;99.06;98132.56;4993465;28;20530;-47
2023/06/24 04:08:05;;;;;;;9.48;5.03;;;;;;;12.94;98.66;98136.59;4992304;28;20070;-47
2023/06/24 04:10:32;;;;;;;8.77;5.45;;;;;;;12.96;98.84;98142.63;4997548;28;20050;-46
2023/06/24 04:12:58;;;;;;;8.75;5.35;;;;;;;12.94;99.44;98146.66;4995671;28;20069;-47
2023/06/24 04:15:25;;;;;;;9.35;5.38;;;;;;;12.92;99.08;98152.34;4973229;28;20101;-47
2023/06/24 04:17:52;;;;;;;8.82;5.43;;;;;;;12.88;99.49;98157.44;4974456;28;20524;-45
2023/06/24 04:20:19;;;;;;;7.75;5.45;;;;;;;12.79;100.00;98164.34;4975009;28;20097;-47
2023/06/24 04:22:46;;;;;;;11.13;5.53;;;;;;;12.85;100.00;98162.53;4978346;28;20540;-46
2023/06/24 04:25:12;;;;;;;8.02;5.32;;;;;;;12.92;100.00;98159.66;4993726;28;20669;-47
2023/06/24 04:27:39;;;;;;;9.40;5.85;;;;;;;13.07;99.62;98162.63;4984802;28;20072;-46
2023/06/24 04:30:07;;;;;;;8.73;5.78;;;;;;;13.18;99.23;98158.16;4968364;28;20072;-49
2023/06/24 04:32:34;;;;;;;8.57;5.93;;;;;;;13.25;98.85;98157.97;4969341;28;20552;-47
2023/06/24 04:35:01;;;;;;;7.13;5.00;;;;;;;13.29;99.34;98169.16;4993637;28;20053;-47
2023/06/24 04:37:28;;;;;;;9.60;5.85;;;;;;;13.42;98.11;98162.56;4976974;28;20062;-48
2023/06/24 04:39:56;;;;;;;9.40;5.80;;;;;;;13.49;97.95;98169.47;4979034;28;20042;-46
2023/06/24 04:42:23;;;;;;;8.52;5.32;;;;;;;13.67;96.87;98172.16;4992124;28;20075;-48
2023/06/24 04:44:53;;;;;;;9.35;5.32;;;;;;;13.83;96.56;98168.56;4990283;28;20120;-48
2023/06/24 04:47:19;;;;;;;8.23;5.30;;;;;;;13.94;95.42;98165.97;4998434;28;20045;-48
2023/06/24 04:49:46;;;;;;;9.40;5.93;;;;;;;14.06;94.97;98172.09;4989915;28;20464;-49
2023/06/24 04:52:13;;;;;;;6.93;4.70;;;;;;;14.15;94.60;98170.56;4987066;28;20114;-48
2023/06/24 04:54:39;;;;;;;8.05;5.35;;;;;;;14.22;94.00;98175.00;4991684;28;20053;-51
2023/06/24 04:57:09;;;;;;;7.13;4.80;;;;;;;14.31;93.69;98171.53;4997019;28;20051;-48
2023/06/24 04:59:38;;;;;;;9.40;5.10;;;;;;;14.46;92.75;98171.94;4992148;28;20049;-46
2023/06/24 05:02:04;;;;;;;9.10;5.65;;;;;;;14.54;92.69;98166.03;4994194;28;20038;-62
2023/06/24 05:04:30;;;;;;;10.48;5.38;;;;;;;14.65;92.10;98165.06;4996373;28;20037;-61
2023/06/24 05:06:57;;;;;;;;;;;;;;;14.74;91.97;98164.56;4991038;28;20064;-61
2023/06/24 05:09:24;;;;;;;7.75;5.40;;;;;;;14.81;92.03;98165.19;4989503;28;19926;-61
2023/06/24 05:11:50;;;;;;;8.43;5.47;;;;;;;14.83;92.52;98171.22;4985466;28;20042;-61
2023/06/24 05:14:17;;;;;;;6.97;5.40;;;;;;;14.90;92.18;98174.56;4997204;28;20061;-60
2023/06/24 05:16:45;;;;;;;9.45;5.15;;;;;;;15.05;91.97;98178.47;4993899;28;20421;-61
2023/06/24 05:19:11;;;;;;;9.05;4.78;;;;;;;15.14;91.64;98173.38;4993871;28;20417;-61
2023/06/24 05:21:38;;;;;;;7.15;5.22;;;;;;;15.23;90.77;98181.88;4995588;28;20050;-61
2023/06/24 05:24:04;;;;;;;7.43;5.50;;;;;;;15.28;90.83;98181.91;4997591;28;20042;-60
2023/06/24 05:26:31;;;;;;;7.57;5.22;;;;;;;15.28;89.96;98180.00;4976772;28;20049;-60
2023/06/24 05:28:57;;;;;;;6.28;4.63;;;;;;;15.29;89.72;98184.38;4996795;28;20045;-60
2023/06/24 05:31:24;;;;;;;7.78;5.35;;;;;;;15.34;90.19;98186.31;4994303;28;20046;-61
2023/06/24 05:33:50;;;;;;;10.55;6.70;;;;;;;15.40;89.71;98182.53;4989483;28;20033;-61
2023/06/24 05:36:17;;;;;;;8.27;5.25;;;;;;;15.52;88.94;98182.31;4989408;28;20046;-61
2023/06/24 05:38:44;;;;;;;7.82;5.68;;;;;;;15.63;88.79;98180.47;4994843;28;20057;-60
2023/06/24 05:41:10;;;;;;;8.82;5.43;;;;;;;15.74;87.78;98184.06;4993231;28;20042;-63
2023/06/24 05:43:37;;;;;;;7.10;5.10;;;;;;;15.87;88.35;98185.47;4985825;28;20054;-60
2023/06/24 05:46:05;;;;;;;8.52;4.53;;;;;;;15.98;86.99;98183.66;4992427;28;20038;-61
2023/06/24 05:48:32;;;;;;;6.10;4.38;;;;;;;16.09;87.13;98187.22;4998706;28;20038;-62
2023/06/24 05:50:58;;;;;;;7.95;5.28;;;;;;;16.20;85.42;98191.66;4994613;28;20045;-61
2023/06/24 05:53:25;;;;;;;6.75;4.80;;;;;;;16.33;85.33;98195.75;4998167;28;20042;-61
2023/06/24 05:55:51;;;;;;;7.90;5.10;;;;;;;16.42;84.79;98192.50;4993101;28;20048;-62
2023/06/24 05:58:18;;;;;;;7.63;4.57;;;;;;;16.51;84.26;98197.19;5000631;28;20046;-60
2023/06/24 06:00:44;;;;;;;8.70;5.07;;;;;;;16.64;84.27;98193.09;4994288;28;20069;-61
2023/06/24 06:03:11;;;;;;;7.75;4.78;;;;;;;16.73;82.85;98189.84;4999072;28;20052;-59
2023/06/24 06:05:38;;;;;;;7.07;5.28;;;;;;;16.80;81.64;98195.84;4999208;28;20522;-60
2023/06/24 06:08:04;;;;;;;6.93;4.82;;;;;;;16.86;81.20;98192.03;5000555;28;20057;-61
2023/06/24 06:10:30;;;;;;;8.32;5.47;;;;;;;16.97;81.22;98190.09;4997938;28;20115;-62
2023/06/24 06:12:57;;;;;;;7.10;4.68;;;;;;;17.07;80.87;98188.50;5001002;28;20049;-61
2023/06/24 06:15:23;;;;;;;7.60;4.65;;;;;;;17.15;79.98;98188.75;4991945;28;20038;-61
2023/06/24 06:17:51;;;;;;;6.97;4.32;;;;;;;17.20;80.13;98196.13;4994276;28;20046;-62
2023/06/24 06:20:18;;;;;;;7.38;4.47;;;;;;;17.25;79.36;98201.59;4986513;28;20053;-62
2023/06/24 06:22:44;;;;;;;8.57;4.80;;;;;;;17.31;79.76;98196.13;4998987;28;20054;-60
2023/06/24 06:25:11;;;;;;;7.68;4.63;;;;;;;17.41;79.04;98196.94;4998441;28;20122;-60
2023/06/24 06:27:37;;;;;;;7.72;4.40;;;;;;;17.51;78.75;98193.34;4999255;28;20056;-60
2023/06/24 06:30:05;;;;;;;7.95;4.38;;;;;;;17.62;77.04;98185.13;4995284;28;20117;-61
2023/06/24 06:32:31;;;;;;;6.55;4.40;;;;;;;17.73;77.25;98188.63;4997284;28;20050;-61
2023/06/24 06:34:58;;;;;;;7.07;5.20;;;;;;;17.82;77.14;98186.97;4989795;28;20505;-61
2023/06/24 06:37:24;;;;;;;6.43;4.35;;;;;;;17.92;76.07;98181.41;4994637;28;20038;-61
2023/06/24 06:39:51;;;;;;;6.35;4.30;;;;;;;18.06;76.10;98195.34;4997166;28;20048;-61
2023/06/24 06:42:17;;;;;;;8.00;4.30;;;;;;;18.17;73.66;98185.19;4999352;28;20050;-62
2023/06/24 06:44:44;;;;;;;7.95;4.90;;;;;;;18.28;72.85;98185.13;4997193;28;20042;-62
2023/06/24 06:47:11;;;;;;;6.78;4.38;;;;;;;18.41;71.53;98184.50;4997048;28;20037;-61
2023/06/24 06:49:37;;;;;;;7.28;4.80;;;;;;;18.34;72.17;98178.50;4991224;28;20431;-60
2023/06/24 06:52:05;;;;;;;6.90;4.63;;;;;;;18.45;71.36;98185.59;4994340;28;20042;-61
2023/06/24 06:54:32;;;;;;;7.43;4.47;;;;;;;18.41;70.49;98186.41;4997646;28;20535;-62
2023/06/24 06:57:03;;;;;;;7.90;4.47;;;;;;;18.51;71.46;98180.88;4998670;28;20445;-59
2023/06/24 06:59:31;;;;;;;6.63;4.30;;;;;;;18.59;69.37;98183.03;4992517;28;20042;-62
2023/06/24 07:01:58;;;;;;;7.13;4.38;;;;;;;18.68;68.71;98177.75;4996867;28;20050;-61
2023/06/24 07:04:24;;;;;;;7.63;4.65;;;;;;;18.76;68.09;98186.47;4991784;28;20045;-60
2023/06/24 07:06:51;;;;;;;6.80;4.00;;;;;;;18.82;68.08;98177.09;4999211;28;20037;-62
2023/06/24 07:09:18;;;;;;;6.60;4.20;;;;;;;18.86;67.59;98189.13;4991483;28;20046;-59
2023/06/24 07:11:44;;;;;;;6.95;4.45;;;;;;;18.97;67.87;98187.13;4998096;28;20732;-62
2023/06/24 07:14:11;;;;;;;6.43;4.50;;;;;;;19.05;67.34;98177.47;4987648;28;20046;-59
2023/06/24 07:16:38;;;;;;;5.97;4.18;;;;;;;19.13;67.30;98187.84;4990755;28;20497;-61
2023/06/24 07:19:04;;;;;;;6.68;4.10;;;;;;;19.21;65.73;98184.44;4991433;28;20050;-62
2023/06/24 07:21:31;;;;;;;5.45;3.75;;;;;;;19.35;65.83;98178.31;4991235;28;20049;-61
2023/06/24 07:23:57;;;;;;;6.55;4.47;;;;;;;19.45;65.80;98177.34;4994538;28;20053;-61
2023/06/24 07:26:24;;;;;;;7.85;4.20;;;;;;;19.59;65.54;98183.81;4994221;28;20042;-59
2023/06/24 07:28:50;;;;;;;7.07;4.07;;;;;;;19.70;65.55;98181.78;5001851;28;20416;-61
2023/06/24 07:31:35;;;;;;;8.18;4.20;;;;;;;19.80;63.92;98171.75;4991554;28;20080;-60
2023/06/24 07:34:02;;;;;;;6.70;4.13;;;;;;;19.87;64.66;98180.47;5000509;28;20401;-61
2023/06/24 07:36:28;;;;;;;5.82;3.80;;;;;;;19.96;62.80;98178.72;4987506;28;20046;-61
2023/06/24 07:38:55;;;;;;;8.07;4.03;;;;;;;20.02;63.61;98180.28;5003605;28;20049;-62
2023/06/24 07:41:21;;;;;;;5.82;4.03;;;;;;;19.99;61.70;98172.66;4997334;28;20056;-60
2023/06/24 07:43:48;;;;;;;7.10;4.15;;;;;;;20.12;63.18;98173.84;4994722;28;20544;-61
2023/06/24 07:46:14;;;;;;;7.63;4.20;;;;;;;20.23;61.98;98173.72;4992464;28;20057;-59
2023/06/24 07:48:41;;;;;;;6.05;3.90;;;;;;;20.26;61.71;98173.94;4994179;28;20051;-59
2023/06/24 07:51:08;;;;;;;7.25;4.40;;;;;;;20.36;62.15;98170.25;4990281;28;20121;-61
2023/06/24 07:53:35;;;;;;;6.75;3.60;;;;;;;20.47;60.85;98170.91;4993555;28;20080;-61
2023/06/24 07:56:02;;;;;;;6.00;4.35;;;;;;;20.46;59.23;98166.53;4994958;28;20113;-61
2023/06/24 07:58:28;;;;;;;5.32;3.53;;;;;;;20.51;58.78;98168.38;4996934;28;20405;-58
2023/06/24 08:00:55;;;;;;;5.70;3.70;;;;;;;20.52;59.88;98170.81;4998020;28;20076;-61
2023/06/24 08:03:22;;;;;;;6.38;3.38;;;;;;;20.71;57.54;98171.94;4993479;28;20109;-59
2023/06/24 08:05:50;;;;;;;5.30;3.03;;;;;;;20.96;55.42;98167.16;4998266;28;20042;-62
2023/06/24 08:08:19;;;;;;;4.85;3.17;;;;;;;21.03;55.29;98168.41;4996382;28;20062;-62
2023/06/24 08:10:46;;;;;;;6.90;3.35;;;;;;;21.14;54.03;98166.28;4995198;28;20132;-60
2023/06/24 08:13:12;;;;;;;5.95;3.00;;;;;;;21.14;54.21;98173.72;5003666;28;20046;-60
2023/06/24 08:15:39;;;;;;;5.25;3.17;;;;;;;21.19;54.66;98165.34;4997533;28;20065;-61
2023/06/24 08:18:08;;;;;;;6.80;3.58;;;;;;;21.43;53.46;98167.97;4992035;28;20128;-60
2023/06/24 08:20:34;;;;;;;5.80;2.83;;;;;;;21.54;53.39;98165.84;4993045;28;20050;-61
2023/06/24 08:23:01;;;;;;;7.53;3.28;;;;;;;21.57;52.14;98162.44;4997856;28;20037;-59
2023/06/24 08:25:27;;;;;;;4.47;2.72;;;;;;;21.59;51.71;98162.13;4990186;28;20545;-61
2023/06/24 08:28:13;;;;;;;6.03;3.10;;;;;;;21.52;51.55;98156.25;4987935;28;20445;-60
2023/06/24 08:34:02;;;;;;;5.10;3.00;;;;;;;21.68;52.39;98159.50;4995527;28;20053;-60
2023/06/24 08:36:29;;;;;;;5.20;2.88;;;;;;;21.88;49.50;98157.47;4990000;28;20517;-59
2023/06/24 08:38:56;;;;;;;4.80;2.90;;;;;;;21.88;48.09;98162.97;4987816;28;20195;-60
2023/06/24 08:41:24;;;;;;;4.70;2.58;;;;;;;21.79;48.81;98160.13;4989160;28;20038;-60
2023/06/24 08:51:09;;;;;;;5.22;2.75;;;;;;;21.93;48.41;98151.88;4994380;28;20125;-59
2023/06/24 08:53:37;;;;;;;5.80;3.42;;;;;;;21.99;47.89;98160.81;4989366;28;20046;-60
2023/06/24 08:56:04;;;;;;;4.63;2.70;;;;;;;22.15;46.64;98161.31;4995902;28;20410;-59
2023/06/24 08:58:30;;;;;;;4.55;2.78;;;;;;;22.13;46.22;98160.81;4995073;28;20095;-60
2023/06/24 09:00:57;;;;;;;7.18;2.92;;;;;;;22.22;46.09;98157.00;5000216;28;20774;-61
2023/06/24 09:03:24;;;;;;;3.58;2.33;;;;;;;22.44;43.73;98157.38;4988015;28;20050;-61
2023/06/24 09:05:50;;;;;;;4.40;2.17;;;;;;;22.53;43.97;98154.69;4995784;28;20057;-59
2023/06/24 09:08:18;;;;;;;4.25;2.90;;;;;;;22.56;44.00;98154.88;4996050;28;20046;-61
2023/06/24 09:10:44;;;;;;;3.83;2.17;;;;;;;22.62;44.11;98152.81;4997436;28;20129;-61
2023/06/24 09:13:11;;;;;;;4.75;3.08;;;;;;;22.52;42.96;98153.84;4991813;28;20605;-62
2023/06/24 09:15:38;;;;;;;6.70;3.47;;;;;;;22.39;43.64;98154.72;4989073;28;20042;-60
2023/06/24 09:18:05;;;;;;;5.10;2.60;;;;;;;22.27;43.38;98149.75;4987203;28;20110;-62
2023/06/24 09:20:39;;;;;;;5.43;3.10;;;;;;;22.21;44.39;98144.34;4987941;28;20034;-61
2023/06/24 09:23:06;;;;;;;4.43;2.38;;;;;;;22.12;44.39;98140.69;4983926;28;20134;-59
2023/06/24 09:25:33;;;;;;;5.00;3.30;;;;;;;22.17;44.02;98128.72;4986089;28;20039;-60
2023/06/24 09:28:01;;;;;;;6.10;2.95;;;;;;;22.16;44.34;98125.16;4996699;28;20046;-59
2023/06/24 09:30:28;;;;;;;5.10;2.65;;;;;;;22.34;45.55;98122.56;4994651;28;20048;-59
2023/06/24 09:32:56;;;;;;;5.43;2.70;;;;;;;22.70;44.89;98123.69;4992089;28;20041;-60
2023/06/24 09:35:24;;;;;;;4.65;2.75;;;;;;;22.93;43.51;98124.47;4999605;28;20140;-60
2023/06/24 09:37:54;;;;;;;5.13;2.90;;;;;;;23.17;42.86;98128.81;4992012;28;20045;-60
2023/06/24 09:40:22;;;;;;;4.50;2.83;;;;;;;23.19;42.41;98120.22;4997679;28;20050;-60
2023/06/24 09:42:56;;;;;;;4.45;2.58;;;;;;;23.24;41.31;98117.31;4994796;28;20122;-60
2023/06/24 09:45:29;;;;;;;4.78;2.60;;;;;;;23.25;41.00;98122.53;4988715;28;20504;-60
2023/06/24 09:47:59;;;;;;;4.90;2.42;;;;;;;23.22;41.29;98117.63;4988982;28;20129;-61
2023/06/24 09:50:26;;;;;;;3.92;2.30;;;;;;;23.23;41.56;98111.00;4997075;28;20210;-58
2023/06/24 09:52:55;;;;;;;5.18;2.80;;;;;;;23.19;41.63;98120.22;4994601;28;20416;-59
2023/06/24 09:55:22;;;;;;;4.63;2.78;;;;;;;23.01;41.64;98109.09;4992945;28;20041;-60
2023/06/24 09:57:53;;;;;;;4.60;2.70;;;;;;;22.94;43.11;98108.72;4988786;28;20136;-58
2023/06/24 10:00:19;;;;;;;;;;;;;;;23.00;42.35;98104.69;4989849;28;20650;-60
2023/06/24 10:02:47;;;;;;;3.88;2.17;;;;;;;23.32;40.81;98112.94;4996765;28;19921;-61
2023/06/24 10:05:15;;;;;;;4.70;2.60;;;;;;;23.69;39.84;98110.84;4992513;28;20038;-60
2023/06/24 10:07:42;;;;;;;4.03;2.50;;;;;;;23.84;39.61;98106.00;4994792;28;20129;-62
2023/06/24 10:10:09;;;;;;;4.53;2.70;;;;;;;23.83;40.42;98104.34;4987439;28;20592;-61
2023/06/24 10:12:36;;;;;;;4.30;2.30;;;;;;;23.76;39.87;98097.38;4990612;28;20627;-61
2023/06/24 10:15:04;;;;;;;3.60;2.00;;;;;;;23.66;39.67;98096.84;4990374;28;20533;-59
2023/06/24 10:17:31;;;;;;;3.83;2.30;;;;;;;23.72;38.81;98101.91;4990665;28;20042;-58
2023/06/24 10:20:03;;;;;;;3.67;2.30;;;;;;;23.54;38.55;98100.25;4987631;28;20050;-60
2023/06/24 10:22:30;;;;;;;5.22;2.20;;;;;;;23.38;38.36;98087.69;4992393;28;20046;-61
2023/06/24 10:24:59;;;;;;;4.30;2.30;;;;;;;23.30;38.15;98088.44;4996907;28;20072;-61
2023/06/24 10:27:27;;;;;;;3.60;1.90;;;;;;;23.39;36.77;98082.94;4990264;28;20050;-60
2023/06/24 10:29:58;;;;;;;3.70;2.15;;;;;;;23.56;37.22;98081.38;4991772;28;20054;-60
2023/06/24 10:32:24;;;;;;;4.07;2.33;;;;;;;23.82;38.10;98069.56;4995417;28;20118;-59
2023/06/24 10:34:56;;;;;;;4.13;2.10;;;;;;;23.90;38.26;98063.22;4988035;28;20073;-60
2023/06/24 10:37:25;;;;;;;4.93;2.60;;;;;;;24.20;38.18;98065.38;4996414;28;20056;-61
2023/06/24 10:40:02;;;;;;;3.78;2.17;;;;;;;24.02;38.43;98074.47;4994087;28;20042;-59
2023/06/24 10:42:36;;;;;;;4.82;2.50;;;;;;;23.92;38.99;98069.25;4994811;28;20061;-59
2023/06/24 10:45:08;;;;;;;4.80;2.35;;;;;;;23.88;39.56;98059.97;4991876;28;20038;-58
2023/06/24 10:47:36;;;;;;;6.97;2.78;;;;;;;24.00;39.13;98053.81;4995244;28;20061;-62
2023/06/24 10:50:03;;;;;;;4.70;2.50;;;;;;;23.97;38.61;98051.69;4996792;28;20041;-61
2023/06/24 10:52:30;;;;;;;5.63;2.95;;;;;;;23.90;39.33;98054.94;4988369;28;20125;-60
2023/06/24 10:54:58;;;;;;;4.30;2.60;;;;;;;23.94;39.34;98058.69;4984733;28;20042;-60
2023/06/24 10:57:27;;;;;;;4.70;2.60;;;;;;;23.92;38.44;98054.59;4989867;28;20045;-61
2023/06/24 10:59:55;;;;;;;4.68;2.17;;;;;;;23.98;37.48;98039.47;4979655;28;20125;-59
2023/06/24 11:02:27;;;;;;;5.63;2.83;;;;;;;23.97;37.28;98041.44;4982958;28;20039;-59
2023/06/24 11:04:55;;;;;;;4.05;2.17;;;;;;;24.14;36.69;98037.09;4981857;28;20031;-61
2023/06/24 11:07:24;;;;;;;4.85;2.15;;;;;;;24.64;34.58;98034.88;4976667;28;20050;-62
2023/06/24 11:09:53;;;;;;;3.40;1.85;;;;;;;24.62;32.71;98042.72;4984479;28;20717;-64
2023/06/24 11:12:27;;;;;;;3.83;1.88;;;;;;;24.62;32.32;98037.19;4979897;28;20075;-60
2023/06/24 11:14:58;;;;;;;4.05;2.00;;;;;;;24.68;31.87;98033.06;4977489;28;20046;-59
2023/06/24 11:17:25;;;;;;;3.65;2.15;;;;;;;24.66;32.67;98029.84;4984259;28;20493;-58
2023/06/24 11:19:53;;;;;;;3.97;2.00;;;;;;;24.66;33.48;98021.53;4980439;28;20110;-59
2023/06/24 11:22:20;;;;;;;11.18;4.43;;;;;;;24.70;34.72;98028.03;4981502;28;20058;-60
2023/06/24 11:24:47;;;;;;;5.88;2.47;;;;;;;24.76;35.01;98018.41;4981792;28;20060;-59
2023/06/24 11:27:14;;;;;;;4.38;2.25;;;;;;;24.89;34.88;98024.91;4988152;28;20037;-59
2023/06/24 11:29:40;;;;;;;6.25;2.17;;;;;;;24.75;33.66;98015.97;5001109;28;20045;-62
2023/06/24 11:32:08;;;;;;;4.32;2.17;;;;;;;24.69;33.46;98018.09;4992026;28;20272;-60
2023/06/24 11:34:36;;;;;;;4.45;1.70;;;;;;;24.80;33.81;98013.00;4981432;28;20493;-64
2023/06/24 11:37:13;;;;;;;3.90;2.25;;;;;;;24.89;33.11;98013.84;4983082;28;20658;-61
2023/06/24 11:39:40;;;;;;;4.25;1.80;;;;;;;24.96;33.63;98005.00;4987726;28;20141;-59
2023/06/24 11:42:08;;;;;;;5.50;2.28;;;;;;;25.06;32.97;98004.63;4984006;28;20045;-62
2023/06/24 11:44:35;;;;;;;4.75;2.47;;;;;;;25.14;31.88;98007.69;4992312;28;20510;-61
2023/06/24 11:47:09;;;;;;;3.75;2.13;;;;;;;25.35;31.89;97998.63;4985226;28;20129;-61